createdAt,value
2019-03-23T00:00:15.235Z,1.58
2019-03-23T00:03:03.169Z,1.41
2019-03-23T00:05:31.551Z,1.43
2019-03-23T00:07:59.933Z,1.26
2019-03-23T00:11:08.199Z,1.16
2019-03-23T00:13:37.474Z,1.29
2019-03-23T00:16:05.925Z,1.27
2019-03-23T00:18:34.474Z,1.14
2019-03-23T00:21:03.415Z,0.96
2019-03-23T00:23:32.215Z,0.95
2019-03-23T00:26:20.628Z,0.98
2019-03-23T00:28:49.765Z,0.93
2019-03-23T00:31:37.669Z,0.81
2019-03-23T00:34:17.926Z,0.73
2019-03-23T00:36:46.766Z,0.64
2019-03-23T00:39:15.612Z,0.72
2019-03-23T00:41:44.100Z,0.76
2019-03-23T00:44:13.222Z,0.78
2019-03-23T00:47:21.702Z,0.86
2019-03-23T00:52:52.415Z,0.81
2019-03-23T00:58:42.011Z,1.03
2019-03-23T01:01:29.633Z,0.92
2019-03-23T01:03:58.118Z,0.84
2019-03-23T01:06:26.620Z,0.86
2019-03-23T01:08:55.729Z,0.88
2019-03-23T01:14:48.400Z,0.90
2019-03-23T01:17:17.179Z,1.25
2019-03-23T01:19:46.271Z,1.27
2019-03-23T01:22:15.434Z,1.23
2019-03-23T01:24:44.354Z,1.01
2019-03-23T01:27:13.474Z,0.75
2019-03-23T01:29:42.366Z,0.68
2019-03-23T01:32:10.956Z,0.99
2019-03-23T01:34:39.835Z,1.19
2019-03-23T01:37:08.539Z,1.21
2019-03-23T01:39:37.421Z,1.20
2019-03-23T01:42:06.329Z,1.34
2019-03-23T01:44:34.757Z,1.33
2019-03-23T01:47:03.268Z,1.04
2019-03-23T01:49:31.821Z,0.91
2019-03-23T01:55:03.385Z,0.56
2019-03-23T01:57:32.217Z,0.43
2019-03-23T02:00:01.029Z,0.46
2019-03-23T02:02:30.192Z,0.41
2019-03-23T02:07:59.639Z,0.36
2019-03-23T02:10:28.398Z,0.28
2019-03-23T02:12:57.280Z,0.26
2019-03-23T02:15:38.046Z,0.17
2019-03-23T02:24:29.070Z,0.31
2019-03-23T02:26:58.219Z,0.19
2019-03-23T02:32:27.219Z,0.24
2019-03-23T02:34:56.327Z,0.39
2019-03-23T02:37:56.098Z,0.52
2019-03-23T02:40:24.498Z,0.58
2019-03-23T02:42:52.994Z,0.37
2019-03-23T02:45:22.105Z,0.23
2019-03-23T02:47:50.942Z,0.40
2019-03-23T02:50:19.969Z,0.57
2019-03-23T02:52:49.208Z,0.71
2019-03-23T02:55:18.398Z,0.87
2019-03-23T02:57:47.322Z,0.90
2019-03-23T03:03:36.450Z,0.53
2019-03-23T03:06:05.675Z,0.22
2019-03-23T03:08:33.729Z,0.25
2019-03-23T03:11:02.132Z,0.11
2019-03-23T03:13:31.225Z,-0.04
2019-03-23T03:16:00.120Z,-0.06
2019-03-23T03:18:29.253Z,-0.16
2019-03-23T03:20:58.376Z,-0.23
2019-03-23T03:23:27.221Z,-0.07
2019-03-23T03:25:56.309Z,-0.07
2019-03-23T03:28:24.870Z,0.11
2019-03-23T03:30:54.160Z,0.22
2019-03-23T03:33:23.332Z,0.37
2019-03-23T03:35:52.165Z,0.37
2019-03-23T03:38:20.588Z,0.44
2019-03-23T03:40:49.375Z,0.40
2019-03-23T03:43:18.524Z,0.46
2019-03-23T03:45:47.376Z,0.45
2019-03-23T03:48:16.010Z,0.34
2019-03-23T03:50:44.961Z,0.15
2019-03-23T03:53:13.887Z,0.02
2019-03-23T03:55:42.836Z,-0.20
2019-03-23T03:58:11.819Z,-0.40
2019-03-23T04:00:41.008Z,-0.44
2019-03-23T04:03:10.178Z,-0.52
2019-03-23T04:05:38.952Z,-0.35
2019-03-23T04:08:11.650Z,-0.42
2019-03-23T04:10:44.424Z,-0.49
2019-03-23T04:16:22.741Z,-0.61
2019-03-23T04:18:51.156Z,-0.55
2019-03-23T04:21:19.996Z,-0.29
2019-03-23T04:23:48.506Z,-0.32
2019-03-23T04:26:16.950Z,-0.35
2019-03-23T04:28:45.439Z,-0.48
2019-03-23T04:31:14.338Z,-0.48
2019-03-23T04:33:43.145Z,-0.29
2019-03-23T04:36:12.068Z,-0.33
2019-03-23T04:42:00.569Z,-0.62
2019-03-23T04:44:29.701Z,-0.78
2019-03-23T04:46:58.963Z,-0.84
2019-03-23T04:52:56.052Z,-0.95
2019-03-23T04:58:27.110Z,-1.06
2019-03-23T05:00:56.419Z,-0.98
2019-03-23T05:03:25.320Z,-0.91
2019-03-23T05:08:56.364Z,-0.72
2019-03-23T05:11:25.258Z,-0.83
2019-03-23T05:13:54.409Z,-0.91
2019-03-23T05:16:34.504Z,-0.96
2019-03-23T05:19:03.665Z,-0.95
2019-03-23T05:21:32.534Z,-1.03
2019-03-23T05:24:01.631Z,-1.06
2019-03-23T05:26:30.450Z,-1.06
2019-03-23T05:28:59.309Z,-1.11
2019-03-23T05:31:28.509Z,-1.10
2019-03-23T05:33:56.989Z,-1.14
2019-03-23T05:36:26.109Z,-1.24
2019-03-23T05:38:55.214Z,-1.30
2019-03-23T05:41:35.787Z,-1.36
2019-03-23T05:44:04.346Z,-1.38
2019-03-23T05:46:32.839Z,-1.36
2019-03-23T05:49:02.123Z,-1.36
2019-03-23T05:51:30.925Z,-1.33
2019-03-23T05:53:59.778Z,-1.06
2019-03-23T05:59:49.400Z,-0.77
2019-03-23T06:02:17.789Z,-0.77
2019-03-23T06:04:46.684Z,-0.81
2019-03-23T06:07:15.171Z,-0.73
2019-03-23T06:09:44.305Z,-0.72
2019-03-23T06:12:13.631Z,-0.74
2019-03-23T06:14:42.830Z,-0.63
2019-03-23T06:17:11.674Z,-0.68
2019-03-23T06:19:40.522Z,-0.72
2019-03-23T06:22:09.686Z,-0.69
2019-03-23T06:25:08.953Z,-0.65
2019-03-23T06:27:37.345Z,-0.64
2019-03-23T06:30:45.875Z,-0.61
2019-03-23T06:33:14.744Z,-0.51
2019-03-23T06:35:43.565Z,-0.49
2019-03-23T06:38:12.168Z,-0.48
2019-03-23T06:40:41.024Z,-0.31
2019-03-23T06:43:10.238Z,-0.22
2019-03-23T06:45:39.355Z,-0.15
2019-03-23T06:48:08.435Z,-0.11
2019-03-23T06:53:38.841Z,0.03
2019-03-23T06:56:07.661Z,0.14
2019-03-23T06:58:38.597Z,0.19
2019-03-23T07:01:13.749Z,0.25
2019-03-23T07:03:42.532Z,0.32
2019-03-23T07:06:11.101Z,0.44
2019-03-23T07:08:39.906Z,0.54
2019-03-23T07:11:08.815Z,0.67
2019-03-23T07:13:38.030Z,0.78
2019-03-23T07:16:06.889Z,0.94
2019-03-23T07:18:35.764Z,1.18
2019-03-23T07:21:04.730Z,1.34
2019-03-23T07:23:33.801Z,1.51
2019-03-23T07:26:02.580Z,1.64
2019-03-23T07:29:11.484Z,1.73
2019-03-23T07:31:40.704Z,1.84
2019-03-23T07:37:18.999Z,2.13
2019-03-23T07:40:27.916Z,2.36
2019-03-23T07:42:56.721Z,2.48
2019-03-23T07:45:25.664Z,2.68
2019-03-23T07:47:54.457Z,2.82
2019-03-23T07:50:23.380Z,2.99
2019-03-23T07:53:11.355Z,3.28
2019-03-23T07:55:39.852Z,3.49
2019-03-23T07:58:39.564Z,3.72
2019-03-23T08:01:27.169Z,4.00
2019-03-23T08:03:56.276Z,4.42
2019-03-23T08:06:25.257Z,4.89
2019-03-23T08:08:53.836Z,5.19
2019-03-23T08:11:22.698Z,5.47
2019-03-23T08:16:54.714Z,5.77
2019-03-23T08:19:22.785Z,6.00
2019-03-23T08:21:51.901Z,6.40
2019-03-23T08:24:21.127Z,7.07
2019-03-23T08:26:50.026Z,7.82
2019-03-23T08:29:19.064Z,8.66
2019-03-23T08:31:47.977Z,9.72
2019-03-23T08:34:16.794Z,10.22
2019-03-23T08:36:46.004Z,11.20
2019-03-23T08:39:14.875Z,12.11
2019-03-23T08:41:43.267Z,12.40
2019-03-23T08:44:12.041Z,12.73
2019-03-23T08:46:41.139Z,13.09
2019-03-23T08:49:09.661Z,13.65
2019-03-23T08:51:38.476Z,14.17
2019-03-23T08:54:07.394Z,14.82
2019-03-23T08:56:37.523Z,14.76
2019-03-23T08:59:06.355Z,14.67
2019-03-23T09:01:35.482Z,14.83
2019-03-23T09:04:04.391Z,14.86
2019-03-23T09:06:33.584Z,14.63
2019-03-23T09:09:01.761Z,14.69
2019-03-23T09:11:30.395Z,14.62
2019-03-23T09:13:59.743Z,14.54
2019-03-23T09:16:28.721Z,14.33
2019-03-23T09:18:57.164Z,14.40
2019-03-23T09:21:26.183Z,14.38
2019-03-23T09:23:55.306Z,14.38
2019-03-23T09:26:24.507Z,14.69
2019-03-23T09:28:53.295Z,14.86
2019-03-23T09:31:21.390Z,15.14
2019-03-23T09:33:50.090Z,15.16
2019-03-23T09:36:22.793Z,15.13
2019-03-23T09:38:56.475Z,15.45
2019-03-23T09:41:24.970Z,15.48
2019-03-23T09:43:53.440Z,15.74
2019-03-23T09:46:22.195Z,16.13
2019-03-23T09:48:51.451Z,16.51
2019-03-23T09:51:20.261Z,16.42
2019-03-23T09:53:49.536Z,16.16
2019-03-23T09:56:18.658Z,16.86
2019-03-23T09:58:47.962Z,16.82
2019-03-23T10:01:17.055Z,17.05
2019-03-23T10:03:46.165Z,17.15
2019-03-23T10:06:14.626Z,17.74
2019-03-23T10:08:43.113Z,18.37
2019-03-23T10:11:12.340Z,18.28
2019-03-23T10:13:41.144Z,18.62
2019-03-23T10:16:10.237Z,18.40
2019-03-23T10:18:39.052Z,18.54
2019-03-23T10:21:07.859Z,19.22
2019-03-23T10:23:36.803Z,19.01
2019-03-23T10:26:05.600Z,19.83
2019-03-23T10:28:34.426Z,19.83
2019-03-23T10:31:03.695Z,20.50
2019-03-23T10:33:32.797Z,20.81
2019-03-23T10:36:02.191Z,20.57
2019-03-23T10:38:30.895Z,21.15
2019-03-23T10:41:00.027Z,21.31
2019-03-23T10:43:29.283Z,21.72
2019-03-23T10:45:58.232Z,21.07
2019-03-23T10:48:27.496Z,21.73
2019-03-23T10:50:56.391Z,21.69
2019-03-23T10:53:24.780Z,21.45
2019-03-23T10:55:54.025Z,21.73
2019-03-23T10:58:22.447Z,21.66
2019-03-23T11:00:51.639Z,21.51
2019-03-23T11:03:20.485Z,21.89
2019-03-23T11:05:49.657Z,22.10
2019-03-23T11:08:18.197Z,21.49
2019-03-23T11:10:47.402Z,21.13
2019-03-23T11:13:16.347Z,20.46
2019-03-23T11:15:44.755Z,20.54
2019-03-23T11:18:13.836Z,20.97
2019-03-23T11:20:42.726Z,21.53
2019-03-23T11:23:10.705Z,21.22
2019-03-23T11:25:39.979Z,20.92
2019-03-23T11:28:08.460Z,21.61
2019-03-23T11:30:37.641Z,22.51
2019-03-23T11:33:06.716Z,23.14
2019-03-23T11:35:35.567Z,23.25
2019-03-23T11:38:04.066Z,22.36
2019-03-23T11:40:33.251Z,22.11
2019-03-23T11:43:02.477Z,22.57
2019-03-23T11:45:30.946Z,22.27
2019-03-23T11:47:59.767Z,22.21
2019-03-23T11:50:28.866Z,22.55
2019-03-23T11:52:57.401Z,22.12
2019-03-23T11:55:26.041Z,22.04
2019-03-23T11:57:55.144Z,21.31
2019-03-23T12:00:23.945Z,20.61
2019-03-23T12:02:52.436Z,21.07
2019-03-23T12:05:21.556Z,20.73
2019-03-23T12:07:50.736Z,20.71
2019-03-23T12:10:19.842Z,20.54
2019-03-23T12:12:48.353Z,20.24
2019-03-23T12:15:17.222Z,20.66
2019-03-23T12:17:45.962Z,20.79
2019-03-23T12:20:15.411Z,21.22
2019-03-23T12:22:43.925Z,22.01
2019-03-23T12:25:12.407Z,21.93
2019-03-23T12:27:41.233Z,21.92
2019-03-23T12:30:50.157Z,21.92
2019-03-23T12:33:18.946Z,22.74
2019-03-23T12:38:28.350Z,22.45
2019-03-23T12:40:57.059Z,22.40
2019-03-23T12:43:25.990Z,21.72
2019-03-23T12:45:54.839Z,21.93
2019-03-23T12:49:03.785Z,22.22
2019-03-23T12:51:32.222Z,22.39
2019-03-23T12:54:01.492Z,22.29
2019-03-23T12:56:30.621Z,22.04
2019-03-23T12:58:59.737Z,21.71
2019-03-23T13:01:28.594Z,21.60
2019-03-23T13:04:28.164Z,22.00
2019-03-23T13:06:57.360Z,22.67
2019-03-23T13:10:05.599Z,22.48
2019-03-23T13:12:34.781Z,22.84
2019-03-23T13:15:03.694Z,22.83
2019-03-23T13:17:32.807Z,23.05
2019-03-23T13:20:02.105Z,22.19
2019-03-23T13:22:30.535Z,22.65
2019-03-23T13:24:59.416Z,23.23
2019-03-23T13:27:28.008Z,23.71
2019-03-23T13:29:56.896Z,24.14
2019-03-23T13:32:25.808Z,24.54
2019-03-23T13:34:54.661Z,24.76
2019-03-23T13:37:23.490Z,24.32
2019-03-23T13:39:52.658Z,23.72
2019-03-23T13:42:21.586Z,23.94
2019-03-23T13:44:50.692Z,23.83
2019-03-23T13:47:19.937Z,24.47
2019-03-23T13:49:49.100Z,24.78
2019-03-23T13:52:17.978Z,24.87
2019-03-23T13:54:47.061Z,24.23
2019-03-23T13:57:16.220Z,23.99
2019-03-23T13:59:45.069Z,24.62
2019-03-23T14:02:13.545Z,24.74
2019-03-23T14:04:41.696Z,25.04
2019-03-23T14:07:09.772Z,25.03
2019-03-23T14:09:38.626Z,25.16
2019-03-23T14:12:07.406Z,25.11
2019-03-23T14:14:36.231Z,24.86
2019-03-23T14:17:04.580Z,24.32
2019-03-23T14:19:33.381Z,23.35
2019-03-23T14:22:02.522Z,22.92
2019-03-23T14:24:31.422Z,23.24
2019-03-23T14:27:00.306Z,23.91
2019-03-23T14:29:29.386Z,24.24
2019-03-23T14:31:58.185Z,23.98
2019-03-23T14:34:27.281Z,24.22
2019-03-23T14:36:55.765Z,24.92
2019-03-23T14:39:24.643Z,25.59
2019-03-23T14:41:53.047Z,25.77
2019-03-23T14:44:22.035Z,25.47
2019-03-23T14:46:50.516Z,25.69
2019-03-23T14:49:19.380Z,25.90
2019-03-23T14:51:47.951Z,26.09
2019-03-23T14:54:16.795Z,26.17
2019-03-23T14:56:45.617Z,27.02
2019-03-23T14:59:14.426Z,26.96
2019-03-23T15:01:43.384Z,27.02
2019-03-23T15:04:23.401Z,26.62
2019-03-23T15:06:52.651Z,26.54
2019-03-23T15:09:21.346Z,25.90
2019-03-23T15:11:50.571Z,25.96
2019-03-23T15:14:18.641Z,26.06
2019-03-23T15:16:47.156Z,26.57
2019-03-23T15:19:15.829Z,26.57
2019-03-23T15:21:52.354Z,26.86
2019-03-23T15:24:20.882Z,26.25
2019-03-23T15:26:49.691Z,26.75
2019-03-23T15:29:18.646Z,26.86
2019-03-23T15:31:47.482Z,26.71
2019-03-23T15:34:16.365Z,26.62
2019-03-23T15:36:45.225Z,26.52
2019-03-23T15:39:14.351Z,26.66
2019-03-23T15:41:43.312Z,26.77
2019-03-23T15:44:12.322Z,26.41
2019-03-23T15:46:41.686Z,26.06
2019-03-23T15:49:10.544Z,26.52
2019-03-23T15:51:38.981Z,26.26
2019-03-23T15:54:07.897Z,26.21
2019-03-23T15:56:36.369Z,25.86
2019-03-23T15:59:04.925Z,25.50
2019-03-23T16:01:34.134Z,25.51
2019-03-23T16:04:03.096Z,24.63
2019-03-23T16:06:39.347Z,24.80
2019-03-23T16:09:08.568Z,24.89
2019-03-23T16:11:37.442Z,24.92
2019-03-23T16:14:06.671Z,24.70
2019-03-23T16:16:36.026Z,24.13
2019-03-23T16:19:05.303Z,23.76
2019-03-23T16:21:34.164Z,23.78
2019-03-23T16:24:02.637Z,23.71
2019-03-23T16:26:31.793Z,23.26
2019-03-23T16:29:01.078Z,23.15
2019-03-23T16:31:29.951Z,22.74
2019-03-23T16:33:58.852Z,22.07
2019-03-23T16:36:27.727Z,21.57
2019-03-23T16:38:56.631Z,21.07
2019-03-23T16:41:25.841Z,20.30
2019-03-23T16:43:54.923Z,19.85
2019-03-23T16:46:23.821Z,19.28
2019-03-23T16:48:52.987Z,18.14
2019-03-23T16:51:21.898Z,16.89
2019-03-23T16:53:50.442Z,15.83
2019-03-23T16:56:19.274Z,15.14
2019-03-23T16:58:48.728Z,14.45
2019-03-23T17:01:17.317Z,14.11
2019-03-23T17:03:46.558Z,13.76
2019-03-23T17:06:15.107Z,13.50
2019-03-23T17:08:44.183Z,13.22
2019-03-23T17:11:13.498Z,12.99
2019-03-23T17:13:41.607Z,12.82
2019-03-23T17:16:10.154Z,12.62
2019-03-23T17:18:38.675Z,12.47
2019-03-23T17:21:07.856Z,12.29
2019-03-23T17:23:36.999Z,12.09
2019-03-23T17:26:06.077Z,11.90
2019-03-23T17:28:34.849Z,11.68
2019-03-23T17:31:03.753Z,11.50
2019-03-23T17:33:32.604Z,11.30
2019-03-23T17:36:01.747Z,11.11
2019-03-23T17:38:30.762Z,10.90
2019-03-23T17:40:59.751Z,10.71
2019-03-23T17:43:28.251Z,10.54
2019-03-23T17:45:56.720Z,10.37
2019-03-23T17:48:25.898Z,10.21
2019-03-23T17:50:54.822Z,10.02
2019-03-23T17:53:23.617Z,9.85
2019-03-23T17:55:52.015Z,9.69
2019-03-23T17:58:20.914Z,9.57
2019-03-23T18:00:49.999Z,9.42
2019-03-23T18:03:19.207Z,9.30
2019-03-23T18:05:48.059Z,9.17
2019-03-23T18:08:16.888Z,9.03
2019-03-23T18:10:45.723Z,8.90
2019-03-23T18:13:16.826Z,8.81
2019-03-23T18:15:51.555Z,8.70
2019-03-23T18:18:20.603Z,8.62
2019-03-23T18:20:49.048Z,8.52
2019-03-23T18:23:18.247Z,8.42
2019-03-23T18:25:46.444Z,8.33
2019-03-23T18:28:15.649Z,8.24
2019-03-23T18:31:24.816Z,8.16
2019-03-23T18:33:54.909Z,8.09
2019-03-23T18:36:24.172Z,8.00
2019-03-23T18:39:12.003Z,7.96
2019-03-23T18:41:52.789Z,7.91
2019-03-23T18:44:22.435Z,7.87
2019-03-23T18:46:51.278Z,7.81
2019-03-23T18:49:20.707Z,7.77
2019-03-23T18:51:49.601Z,7.71
2019-03-23T18:54:18.691Z,7.63
2019-03-23T18:56:59.664Z,7.57
2019-03-23T18:59:48.204Z,7.54
2019-03-23T19:02:16.609Z,7.51
2019-03-23T19:04:45.777Z,7.45
2019-03-23T19:07:14.632Z,7.36
2019-03-23T19:09:43.164Z,7.31
2019-03-23T19:12:12.071Z,7.25
2019-03-23T19:14:40.850Z,7.23
2019-03-23T19:17:10.028Z,7.15
2019-03-23T19:19:39.207Z,7.07
2019-03-23T19:22:08.484Z,6.97
2019-03-23T19:27:17.359Z,6.79
2019-03-23T19:29:46.158Z,6.74
2019-03-23T19:32:15.455Z,6.66
2019-03-23T19:34:44.350Z,6.57
2019-03-23T19:37:12.839Z,6.45
2019-03-23T19:39:41.688Z,6.36
2019-03-23T19:42:50.708Z,6.33
2019-03-23T19:45:19.690Z,6.24
2019-03-23T19:47:48.809Z,6.16
2019-03-23T19:50:18.047Z,6.12
2019-03-23T19:52:46.900Z,6.04
2019-03-23T19:55:16.042Z,5.96
2019-03-23T19:57:45.033Z,5.85
2019-03-23T20:03:15.202Z,5.65
2019-03-23T20:05:44.012Z,5.62
2019-03-23T20:08:13.254Z,5.55
2019-03-23T20:10:42.479Z,5.50
2019-03-23T20:13:10.919Z,5.43
2019-03-23T20:15:40.121Z,5.39
2019-03-23T20:18:09.218Z,5.34
2019-03-23T20:20:37.939Z,5.28
2019-03-23T20:23:06.689Z,5.22
2019-03-23T20:25:36.052Z,5.22
2019-03-23T20:28:05.312Z,5.20
2019-03-23T20:30:34.223Z,5.13
2019-03-23T20:33:03.449Z,5.13
2019-03-23T20:35:32.065Z,5.09
2019-03-23T20:38:00.198Z,4.99
2019-03-23T20:40:29.374Z,4.93
2019-03-23T20:42:58.177Z,4.88
2019-03-23T20:45:29.155Z,4.77
2019-03-23T20:48:09.289Z,4.77
2019-03-23T20:51:18.182Z,4.74
2019-03-23T20:53:47.497Z,4.69
2019-03-23T20:56:16.546Z,4.63
2019-03-23T20:58:45.479Z,4.53
2019-03-23T21:01:14.783Z,4.45
2019-03-23T21:03:43.276Z,4.36
2019-03-23T21:06:12.661Z,4.31
2019-03-23T21:09:07.588Z,4.25
2019-03-23T21:11:47.838Z,4.25
2019-03-23T21:17:27.106Z,4.10
2019-03-23T21:19:56.298Z,4.03
2019-03-23T21:22:36.908Z,4.00
2019-03-23T21:25:06.637Z,3.94
2019-03-23T21:27:35.543Z,3.88
2019-03-23T21:33:32.169Z,3.84
2019-03-23T21:36:28.803Z,3.79
2019-03-23T21:38:58.143Z,3.80
2019-03-23T21:44:30.921Z,3.77
2019-03-23T21:47:02.634Z,3.72
2019-03-23T21:49:41.603Z,3.70
2019-03-23T21:52:23.717Z,3.68
2019-03-23T21:54:53.273Z,3.67
2019-03-23T21:57:22.902Z,3.64
2019-03-23T21:59:52.727Z,3.62
2019-03-23T22:02:22.297Z,3.56
2019-03-23T22:04:51.853Z,3.54
2019-03-23T22:07:21.069Z,3.50
2019-03-23T22:09:49.903Z,3.44
2019-03-23T22:12:19.043Z,3.45
2019-03-23T22:14:47.834Z,3.45
2019-03-23T22:17:16.729Z,3.42
2019-03-23T22:19:45.183Z,3.36
2019-03-23T22:22:14.036Z,3.32
2019-03-23T22:24:43.235Z,3.26
2019-03-23T22:27:12.417Z,3.25
2019-03-23T22:29:41.272Z,3.20
2019-03-23T22:32:09.965Z,3.20
2019-03-23T22:34:39.488Z,3.21
2019-03-23T22:37:08.918Z,3.22
2019-03-23T22:40:17.855Z,3.19
2019-03-23T22:43:05.248Z,3.12
2019-03-23T22:45:35.804Z,3.07
2019-03-23T22:48:12.345Z,3.03
2019-03-23T22:51:00.351Z,2.95
2019-03-23T22:53:29.903Z,2.97
2019-03-23T22:55:59.012Z,2.97
2019-03-23T22:58:28.219Z,2.89
2019-03-23T23:00:57.058Z,2.88
2019-03-23T23:03:45.394Z,2.93
2019-03-23T23:06:15.396Z,2.87
2019-03-23T23:11:46.214Z,2.79
2019-03-23T23:15:03.982Z,2.78
2019-03-23T23:17:35.578Z,2.74
2019-03-23T23:20:04.270Z,2.67
2019-03-23T23:22:52.202Z,2.65
2019-03-23T23:25:21.122Z,2.56
2019-03-23T23:27:49.732Z,2.52
2019-03-23T23:30:18.368Z,2.48
2019-03-23T23:32:46.754Z,2.51
2019-03-23T23:38:18.588Z,2.45
2019-03-23T23:40:47.880Z,2.46
2019-03-23T23:43:17.047Z,2.46
2019-03-23T23:45:45.889Z,2.44
2019-03-23T23:48:14.826Z,2.37
2019-03-23T23:50:43.968Z,2.30
2019-03-23T23:53:13.088Z,2.28
2019-03-23T23:58:43.155Z,2.21
